Terminal Aerodrome Forecast
Issued by NWS

Home | Current Version | Previous Version | Text Only | Print | Product List | Glossary On
Versions: 1 2 3 4 5 6 7 8 9 10 11 12
000
FTUS44 KLZK 310538
TAFADF
TAF
KADF 310538Z 3106/0106 VRB03KT P6SM SCT250
      TEMPO 3109/3113 3SM BR
     FM311500 17006KT P6SM SCT050 SCT250
     FM010100 VRB03KT P6SM SCT250=

USA.gov is the U.S. government's official web portal to all federal, state and local government web resources and services.